Time;durP1;ratioP1;P1;durP2;ratioP2;P2;SDS_P1;SDS_P2;PMS_P1;PMS_P2;Temp;Humidity;BMP_temperature;BMP_pressure;BME280_temperature;BME280_humidity;BME280_pressure;Samples;Min_cycle;Max_cycle;Signal;HPM_P1;HPM_P2
2023/03/08 00:01:23;;;;;;;0.98;0.98;;;;;;;19.64;31.58;98271.42;1895927;74;28239;-56
2023/03/08 00:04:11;;;;;;;1.02;1.02;;;;;;;19.66;31.54;98269.28;1900145;74;28020;-55
2023/03/08 00:07:00;;;;;;;0.93;0.93;;;;;;;19.62;31.56;98255.86;1917188;74;28058;-55
2023/03/08 00:09:48;;;;;;;1.22;1.17;;;;;;;19.63;31.59;98257.50;1894988;74;28263;-53
2023/03/08 00:12:37;;;;;;;0.98;0.98;;;;;;;19.62;31.57;98256.70;1897183;74;28316;-57
2023/03/08 00:15:25;;;;;;;1.17;1.10;;;;;;;19.63;31.56;98257.50;1898746;74;28040;-57
2023/03/08 00:18:13;;;;;;;0.82;0.82;;;;;;;19.61;31.57;98252.31;1908480;74;28200;-55
2023/03/08 00:21:05;;;;;;;1.12;1.10;;;;;;;19.66;31.55;98257.02;1886592;74;28129;-54
2023/03/08 00:23:54;;;;;;;1.00;1.00;;;;;;;19.62;31.60;98254.50;1898293;74;28175;-55
2023/03/08 00:26:43;;;;;;;1.10;1.10;;;;;;;19.63;31.61;98253.41;1897464;74;28031;-57
2023/03/08 00:29:32;;;;;;;1.20;1.10;;;;;;;19.63;31.60;98259.70;1917182;74;28028;-56
2023/03/08 00:32:21;;;;;;;1.15;1.10;;;;;;;19.63;31.56;98258.86;1895033;74;28122;-55
2023/03/08 00:35:10;;;;;;;0.83;0.83;;;;;;;19.63;31.61;98253.41;1899022;74;28141;-57
2023/03/08 00:37:59;;;;;;;1.00;1.00;;;;;;;19.64;31.56;98245.55;1897084;74;28109;-55
2023/03/08 00:40:47;;;;;;;1.07;1.07;;;;;;;19.66;31.60;98243.40;1910433;74;28206;-56
2023/03/08 00:43:36;;;;;;;0.70;0.70;;;;;;;19.65;31.54;98241.20;1906115;74;28050;-56
2023/03/08 00:46:26;;;;;;;1.43;1.07;;;;;;;19.66;31.57;98244.77;1884356;75;28481;-58
2023/03/08 00:49:14;;;;;;;1.10;1.10;;;;;;;19.65;31.57;98246.66;1880797;75;28141;-57
2023/03/08 00:52:03;;;;;;;1.40;1.30;;;;;;;19.64;31.60;98230.56;1868735;76;28130;-58
2023/03/08 00:54:51;;;;;;;0.90;0.90;;;;;;;19.65;31.60;98225.42;1873051;75;28146;-58
2023/03/08 00:57:39;;;;;;;1.00;1.00;;;;;;;19.65;31.57;98219.97;1868271;76;28272;-58
2023/03/08 01:00:29;;;;;;;1.10;1.05;;;;;;;19.63;31.56;98220.20;1890825;75;28135;-57
2023/03/08 01:03:20;;;;;;;1.35;1.10;;;;;;;19.62;31.60;98219.92;1890889;75;28001;-57
2023/03/08 01:06:12;;;;;;;1.10;1.00;;;;;;;19.63;31.59;98221.56;1888952;75;28081;-58
2023/03/08 01:09:02;;;;;;;1.05;1.05;;;;;;;19.62;31.61;98216.37;1887235;75;28063;-59
2023/03/08 01:11:50;;;;;;;0.93;0.93;;;;;;;19.62;31.62;98220.45;1879748;75;28069;-54
2023/03/08 01:14:39;;;;;;;1.00;1.00;;;;;;;19.62;31.62;98221.29;1879487;75;28145;-57
2023/03/08 01:17:27;;;;;;;1.07;1.07;;;;;;;19.62;31.60;98209.56;1881467;75;28160;-56
2023/03/08 01:20:16;;;;;;;0.95;0.95;;;;;;;19.63;31.63;98201.13;1882421;75;28076;-56
2023/03/08 01:23:04;;;;;;;1.00;1.00;;;;;;;19.63;31.64;98205.74;1893433;75;28098;-54
2023/03/08 01:26:08;;;;;;;1.02;1.02;;;;;;;19.63;31.61;98207.94;1890168;75;28072;-57
2023/03/08 01:28:57;;;;;;;0.98;0.98;;;;;;;19.64;31.62;98206.05;1872073;75;28213;-54
2023/03/08 01:31:45;;;;;;;1.52;1.10;;;;;;;19.61;31.65;98198.36;1901254;75;28139;-56
2023/03/08 01:34:34;;;;;;;1.50;1.00;;;;;;;19.62;31.64;98194.58;1869608;75;28571;-55
2023/03/08 01:37:22;;;;;;;1.10;1.10;;;;;;;19.61;31.66;98192.38;1890022;75;28052;-58
2023/03/08 01:40:15;;;;;;;1.02;1.02;;;;;;;19.63;31.63;98193.48;1868854;76;28200;-56
2023/03/08 01:43:31;;;;;;;1.10;1.10;;;;;;;19.63;31.65;98183.42;1868948;76;28151;-55
2023/03/08 01:46:29;;;;;;;0.80;0.80;;;;;;;19.65;31.63;98190.01;1883990;75;28000;-57
2023/03/08 01:49:27;;;;;;;0.90;0.90;;;;;;;19.61;31.63;98182.84;1888299;75;28133;-54
2023/03/08 01:52:23;;;;;;;1.10;1.10;;;;;;;19.60;31.68;98190.75;1898892;75;28106;-56
2023/03/08 01:55:13;;;;;;;1.20;1.10;;;;;;;19.58;31.70;98184.70;1897642;75;28578;-57
2023/03/08 01:58:02;;;;;;;1.12;1.02;;;;;;;19.60;31.68;98176.30;1868630;75;38452;-53
2023/03/08 02:00:50;;;;;;;1.10;1.10;;;;;;;19.62;31.65;98169.53;1883090;75;28115;-56
2023/03/08 02:03:39;;;;;;;0.90;0.90;;;;;;;19.61;31.69;98171.13;1879471;75;28153;-56
2023/03/08 02:06:29;;;;;;;0.90;0.90;;;;;;;19.63;31.68;98166.25;1876427;75;28096;-53
2023/03/08 02:09:18;;;;;;;1.30;1.20;;;;;;;19.62;31.66;98163.25;1887541;75;28017;-56
2023/03/08 02:12:09;;;;;;;0.90;0.90;;;;;;;19.63;31.66;98161.63;1868787;76;28145;-56
2023/03/08 02:14:59;;;;;;;1.10;1.10;;;;;;;19.62;31.68;98154.55;1877257;75;28016;-56
2023/03/08 02:17:48;;;;;;;1.00;1.00;;;;;;;19.62;31.65;98159.17;1898091;75;28063;-57
2023/03/08 02:20:40;;;;;;;1.00;1.00;;;;;;;19.60;31.68;98151.25;1868749;76;28110;-58
2023/03/08 02:23:29;;;;;;;0.90;0.90;;;;;;;19.63;31.66;98161.63;1883093;75;28140;-55
2023/03/08 02:26:19;;;;;;;1.07;1.07;;;;;;;19.62;31.67;98156.44;1893446;75;28079;-56
2023/03/08 02:29:08;;;;;;;1.10;1.10;;;;;;;19.59;31.67;98150.95;1876661;75;28222;-57
2023/03/08 02:31:56;;;;;;;1.07;1.07;;;;;;;19.62;31.68;98152.36;1883159;75;28126;-56
2023/03/08 02:34:45;;;;;;;0.90;0.90;;;;;;;19.63;31.70;98153.98;1868634;76;28230;-55
2023/03/08 02:37:34;;;;;;;0.90;0.90;;;;;;;19.62;31.68;98142.30;1872826;75;28140;-54
2023/03/08 02:40:23;;;;;;;1.30;1.10;;;;;;;19.61;31.67;98137.08;1850062;76;28135;-57
2023/03/08 02:43:12;;;;;;;1.00;1.00;;;;;;;19.64;31.67;98141.50;1885029;75;28020;-57
2023/03/08 02:46:00;;;;;;;1.00;1.00;;;;;;;19.64;31.63;98148.84;1879777;75;28114;-56
2023/03/08 02:48:51;;;;;;;1.00;1.00;;;;;;;19.63;31.70;98149.91;1879637;75;28037;-56
2023/03/08 02:51:41;;;;;;;1.00;1.00;;;;;;;19.65;31.58;98149.15;1854516;75;28259;-56
2023/03/08 02:54:29;;;;;;;0.90;0.90;;;;;;;19.62;31.60;98149.11;1869242;76;28089;-56
2023/03/08 02:57:18;;;;;;;1.27;1.17;;;;;;;19.63;31.64;98141.20;1848057;76;28159;-54
2023/03/08 03:00:09;;;;;;;1.00;1.00;;;;;;;19.61;31.66;98124.28;1847840;76;28195;-55
2023/03/08 03:02:57;;;;;;;1.00;1.00;;;;;;;19.62;31.66;98116.95;1869012;76;28215;-56
2023/03/08 03:05:47;;;;;;;0.90;0.90;;;;;;;19.64;31.67;98122.44;1868957;76;28102;-54
2023/03/08 03:08:37;;;;;;;1.10;1.10;;;;;;;19.65;31.64;98120.55;1858909;76;28164;-56
2023/03/08 03:11:26;;;;;;;1.17;1.17;;;;;;;19.64;31.65;98116.16;1858643;76;28304;-55
2023/03/08 03:14:15;;;;;;;1.00;1.00;;;;;;;19.64;31.63;98122.97;1857084;76;28094;-56
2023/03/08 03:17:04;;;;;;;1.10;1.10;;;;;;;19.63;31.65;98123.50;1837797;77;28231;-56
2023/03/08 03:19:53;;;;;;;1.00;1.00;;;;;;;19.63;31.66;98110.41;1845793;76;28145;-57
2023/03/08 03:22:41;;;;;;;0.98;0.98;;;;;;;19.63;31.66;98112.60;1866738;76;32071;-56
2023/03/08 03:25:30;;;;;;;0.90;0.90;;;;;;;19.61;31.70;98115.28;1855286;76;28090;-55
2023/03/08 03:28:19;;;;;;;1.15;1.05;;;;;;;19.63;31.68;98099.52;1849566;76;28116;-56
2023/03/08 03:31:11;;;;;;;0.82;0.82;;;;;;;19.62;31.70;98095.16;1841591;76;28273;-55
2023/03/08 03:33:59;;;;;;;0.90;0.90;;;;;;;19.65;31.63;98087.86;1859711;76;28106;-55
2023/03/08 03:36:48;;;;;;;1.10;1.00;;;;;;;19.67;31.63;98091.16;1852208;76;28220;-58
2023/03/08 03:39:37;;;;;;;1.02;1.02;;;;;;;19.68;31.62;98105.05;1848977;76;28098;-56
2023/03/08 03:42:26;;;;;;;0.88;0.88;;;;;;;19.66;31.61;98102.58;1868942;76;28082;-56
2023/03/08 03:45:16;;;;;;;1.07;1.07;;;;;;;19.61;31.69;98097.58;1867773;76;28089;-53
2023/03/08 03:48:06;;;;;;;0.80;0.80;;;;;;;19.61;31.69;98098.41;1854285;76;28168;-57
2023/03/08 03:50:57;;;;;;;1.00;1.00;;;;;;;19.62;31.70;98107.41;1848670;76;28068;-56
2023/03/08 03:53:46;;;;;;;1.30;1.00;;;;;;;19.63;31.68;98111.77;1859779;76;28637;-55
2023/03/08 03:56:35;;;;;;;1.00;1.00;;;;;;;19.63;31.65;98098.15;1836019;77;28164;-56
2023/03/08 03:59:25;;;;;;;1.20;1.10;;;;;;;19.64;31.65;98109.34;1840648;77;28247;-57
2023/03/08 04:02:14;;;;;;;0.90;0.90;;;;;;;19.62;31.69;98109.61;1837097;77;28231;-54
2023/03/08 04:05:05;;;;;;;0.88;0.88;;;;;;;19.63;31.67;98109.05;1847654;76;28145;-55
2023/03/08 04:07:54;;;;;;;0.90;0.90;;;;;;;19.61;31.66;98104.39;1835962;77;28239;-58
2023/03/08 04:10:44;;;;;;;1.02;1.02;;;;;;;19.60;31.70;98108.20;1840381;77;28222;-55
2023/03/08 04:13:34;;;;;;;0.90;0.90;;;;;;;19.62;31.72;98102.80;1837424;77;28632;-55
2023/03/08 04:16:26;;;;;;;1.00;1.00;;;;;;;19.59;31.77;98097.01;1862761;76;28151;-57
2023/03/08 04:19:15;;;;;;;0.90;0.90;;;;;;;19.54;31.73;98092.30;1858332;76;28149;-52
2023/03/08 04:22:05;;;;;;;0.90;0.90;;;;;;;19.59;31.74;98105.17;1855098;76;28106;-57
2023/03/08 04:24:55;;;;;;;0.80;0.80;;;;;;;19.60;31.73;98091.33;1837997;77;28057;-58
2023/03/08 04:27:48;;;;;;;1.03;1.03;;;;;;;19.58;31.81;98083.12;1836195;77;28549;-56
2023/03/08 04:30:37;;;;;;;0.85;0.85;;;;;;;19.58;31.75;98096.73;1856826;77;28203;-56
2023/03/08 04:33:26;;;;;;;0.90;0.90;;;;;;;19.60;31.70;98098.67;1850864;76;28303;-56
2023/03/08 04:36:16;;;;;;;1.02;1.02;;;;;;;19.60;31.72;98076.88;1837529;77;28152;-56
2023/03/08 04:39:06;;;;;;;0.90;0.90;;;;;;;19.62;31.68;98070.64;1846714;77;28175;-53
2023/03/08 04:41:55;;;;;;;0.85;0.85;;;;;;;19.61;31.73;98066.25;1858314;76;28060;-57
2023/03/08 04:44:45;;;;;;;1.00;0.95;;;;;;;19.61;31.73;98067.62;1837614;77;28249;-57
2023/03/08 04:47:33;;;;;;;1.10;1.10;;;;;;;19.60;31.70;98072.80;1837544;77;28237;-57
2023/03/08 04:50:22;;;;;;;1.00;0.90;;;;;;;19.60;31.74;98083.16;1858237;76;28258;-55
2023/03/08 04:53:12;;;;;;;1.32;0.80;;;;;;;19.60;31.70;98076.88;1860253;75;28065;-56
2023/03/08 04:56:02;;;;;;;1.00;1.00;;;;;;;19.60;31.72;98076.88;1884401;75;28066;-57
2023/03/08 04:58:50;;;;;;;1.20;1.10;;;;;;;19.62;31.73;98072.00;1862589;75;28187;-56
2023/03/08 05:01:41;;;;;;;0.72;0.72;;;;;;;19.61;31.75;98080.70;1862726;75;28686;-55
2023/03/08 05:04:30;;;;;;;0.80;0.80;;;;;;;19.59;31.75;98073.33;1884520;75;28105;-56
2023/03/08 05:07:18;;;;;;;0.90;0.90;;;;;;;19.61;31.69;98071.17;1866383;75;28114;-57
2023/03/08 05:10:08;;;;;;;0.80;0.80;;;;;;;19.61;31.71;98073.06;1854599;75;28195;-57
2023/03/08 05:12:57;;;;;;;0.90;0.90;;;;;;;19.63;31.74;98076.36;1800596;78;28176;-56
2023/03/08 05:15:46;;;;;;;0.93;0.93;;;;;;;19.63;31.67;98076.36;1810140;78;28795;-58
2023/03/08 05:18:35;;;;;;;0.72;0.72;;;;;;;19.63;31.73;98092.70;1808458;78;28281;-58
2023/03/08 05:21:24;;;;;;;0.80;0.80;;;;;;;19.61;31.69;98088.05;1783377;78;28261;-55
2023/03/08 05:24:13;;;;;;;0.90;0.90;;;;;;;19.62;31.71;98088.34;1801098;78;28220;-58
2023/03/08 05:27:03;;;;;;;0.67;0.67;;;;;;;19.62;31.73;98095.16;1835597;77;28076;-56
2023/03/08 05:29:52;;;;;;;0.80;0.80;;;;;;;19.63;31.71;98094.06;1802496;78;28310;-55
2023/03/08 05:32:41;;;;;;;0.88;0.88;;;;;;;19.56;31.70;98084.70;1809899;78;28293;-56
2023/03/08 05:35:30;;;;;;;1.02;1.02;;;;;;;19.62;31.69;98083.73;1828848;78;28354;-58
2023/03/08 05:38:18;;;;;;;0.80;0.80;;;;;;;19.64;31.70;98091.64;1817814;78;28354;-56
2023/03/08 05:41:10;;;;;;;0.60;0.60;;;;;;;19.63;31.70;98097.63;1812560;78;28365;-57
2023/03/08 05:44:01;;;;;;;1.22;0.85;;;;;;;19.64;31.71;98097.09;1810637;78;28220;-57
2023/03/08 05:46:52;;;;;;;0.70;0.70;;;;;;;19.63;31.71;98107.16;1810848;78;33327;-55
2023/03/08 05:49:41;;;;;;;0.70;0.70;;;;;;;19.63;31.72;98104.96;1830846;78;28290;-54
2023/03/08 05:52:30;;;;;;;0.80;0.80;;;;;;;19.62;31.73;98095.98;1801099;79;28378;-56
2023/03/08 05:55:19;;;;;;;0.80;0.80;;;;;;;19.62;31.74;98107.41;1793324;77;28420;-58
2023/03/08 05:58:08;;;;;;;0.80;0.80;;;;;;;19.65;31.71;98109.65;1770735;80;28518;-56
2023/03/08 06:00:57;;;;;;;0.70;0.70;;;;;;;19.64;31.70;98119.72;1765660;80;28810;-53
2023/03/08 06:03:47;;;;;;;0.68;0.68;;;;;;;19.63;31.71;98119.41;1770393;80;28435;-54
2023/03/08 06:06:37;;;;;;;0.80;0.80;;;;;;;19.63;31.68;98110.41;1770207;80;28528;-56
2023/03/08 06:09:26;;;;;;;0.90;0.90;;;;;;;19.61;31.74;98118.01;1770057;80;28374;-56
2023/03/08 06:12:14;;;;;;;0.90;0.90;;;;;;;19.62;31.73;98125.13;1765975;80;28505;-57
2023/03/08 06:15:06;;;;;;;0.70;0.70;;;;;;;19.61;31.75;98122.92;1779494;80;28344;-56
2023/03/08 06:17:55;;;;;;;0.73;0.70;;;;;;;19.64;31.74;98129.78;1761047;80;28371;-56
2023/03/08 06:20:45;;;;;;;0.80;0.80;;;;;;;19.61;31.75;98137.08;1779484;80;28426;-55
2023/03/08 06:23:35;;;;;;;0.70;0.70;;;;;;;19.64;31.75;98140.67;1764994;80;28340;-56
2023/03/08 06:26:24;;;;;;;0.90;0.90;;;;;;;19.65;31.72;98131.44;1757852;80;28481;-55
2023/03/08 06:29:13;;;;;;;0.80;0.80;;;;;;;19.64;31.73;98133.33;1815514;78;28447;-55
2023/03/08 06:32:02;;;;;;;0.85;0.85;;;;;;;19.65;31.72;98142.34;1813402;78;28157;-56
2023/03/08 06:34:51;;;;;;;0.87;0.87;;;;;;;19.65;31.75;98151.31;1803093;79;28144;-55
2023/03/08 06:37:40;;;;;;;1.40;0.90;;;;;;;19.63;31.74;98153.46;1817490;78;28411;-55
2023/03/08 06:40:29;;;;;;;0.70;0.70;;;;;;;19.66;31.75;98160.31;1816162;78;28154;-54
2023/03/08 06:43:19;;;;;;;0.80;0.80;;;;;;;19.65;31.76;98173.66;1810828;78;28139;-56
2023/03/08 06:46:10;;;;;;;0.80;0.80;;;;;;;19.62;31.78;98172.26;1821549;78;28155;-55
2023/03/08 06:49:00;;;;;;;0.80;0.80;;;;;;;19.64;31.77;98173.36;1794550;79;28347;-57
2023/03/08 06:51:50;;;;;;;0.80;0.80;;;;;;;19.63;31.78;98177.14;1795801;78;28418;-55
2023/03/08 06:54:39;;;;;;;0.80;0.80;;;;;;;19.65;31.78;98177.75;1820433;78;28208;-55
2023/03/08 06:57:28;;;;;;;0.78;0.78;;;;;;;19.66;31.77;98183.47;1837292;77;28127;-56
2023/03/08 07:00:18;;;;;;;0.78;0.78;;;;;;;19.65;31.78;98198.18;1865453;76;28060;-58
2023/03/08 07:03:06;;;;;;;0.60;0.60;;;;;;;19.63;31.79;98203.85;1835300;77;28233;-54
2023/03/08 07:06:00;;;;;;;0.60;0.60;;;;;;;19.64;31.80;98209.61;1841805;77;28030;-57
2023/03/08 07:08:48;;;;;;;0.88;0.88;;;;;;;19.66;31.76;98202.01;1868994;76;28064;-56
2023/03/08 07:11:38;;;;;;;0.70;0.70;;;;;;;19.65;31.77;98199.55;1841901;76;28668;-55
2023/03/08 07:14:26;;;;;;;0.82;0.82;;;;;;;19.66;31.79;98186.20;1858685;76;28127;-54
2023/03/08 07:17:15;;;;;;;0.78;0.78;;;;;;;19.65;31.78;98194.89;1853720;76;28118;-54
2023/03/08 07:20:05;;;;;;;0.65;0.65;;;;;;;19.67;31.77;98203.67;1848695;76;28135;-58
2023/03/08 07:22:54;;;;;;;0.80;0.80;;;;;;;19.67;31.77;98189.22;1842177;76;28137;-54
2023/03/08 07:25:42;;;;;;;0.75;0.75;;;;;;;19.66;31.77;98201.17;1858196;76;28162;-56
2023/03/08 07:28:31;;;;;;;0.60;0.60;;;;;;;19.69;31.76;98209.70;1825178;78;28130;-54
2023/03/08 07:31:19;;;;;;;0.88;0.88;;;;;;;19.69;31.79;98210.23;1858384;76;28129;-56
2023/03/08 07:34:08;;;;;;;0.80;0.80;;;;;;;19.67;31.80;98213.21;1842217;76;28064;-57
2023/03/08 07:36:56;;;;;;;0.80;0.80;;;;;;;19.65;31.79;98214.52;1848893;76;28345;-57
2023/03/08 07:39:45;;;;;;;0.80;0.80;;;;;;;19.63;31.86;98207.11;1851872;76;28060;-58
2023/03/08 07:42:34;;;;;;;0.70;0.70;;;;;;;19.64;31.85;98205.52;1827642;77;28595;-55
2023/03/08 07:45:24;;;;;;;0.70;0.70;;;;;;;19.65;31.87;98198.18;1862104;76;28055;-57
2023/03/08 07:48:12;;;;;;;0.62;0.62;;;;;;;19.65;31.83;98209.08;1868572;76;28069;-56
2023/03/08 07:51:09;;;;;;;0.70;0.70;;;;;;;19.66;31.85;98217.52;1839508;77;28514;-57
2023/03/08 07:53:57;;;;;;;0.70;0.70;;;;;;;19.61;31.88;98209.25;1868783;76;28083;-56
2023/03/08 07:56:46;;;;;;;0.72;0.72;;;;;;;19.63;31.92;98213.91;1856943;76;28088;-55
2023/03/08 07:59:35;;;;;;;0.70;0.70;;;;;;;19.64;31.87;98211.50;1853700;77;28147;-56
2023/03/08 08:02:23;;;;;;;0.80;0.80;;;;;;;19.66;31.85;98218.36;1850239;76;28052;-53
2023/03/08 08:05:12;;;;;;;0.75;0.75;;;;;;;19.66;31.88;98216.16;1847638;76;28052;-57
2023/03/08 08:08:00;;;;;;;0.75;0.75;;;;;;;19.65;31.86;98211.23;1847658;76;28232;-55
2023/03/08 08:10:49;;;;;;;0.85;0.85;;;;;;;19.65;31.90;98215.89;1868623;76;28088;-57
2023/03/08 08:13:37;;;;;;;0.80;0.80;;;;;;;19.66;31.87;98215.63;1848800;76;28103;-55
2023/03/08 08:16:25;;;;;;;0.70;0.70;;;;;;;19.65;31.90;98210.44;1847799;76;28064;-57
2023/03/08 08:19:14;;;;;;;0.65;0.65;;;;;;;19.64;31.90;98215.58;1848009;76;28161;-55
2023/03/08 08:22:02;;;;;;;0.88;0.80;;;;;;;19.65;31.89;98222.70;1841430;77;30008;-58
2023/03/08 08:24:51;;;;;;;0.68;0.68;;;;;;;19.67;31.95;98225.47;1847157;77;28143;-57
2023/03/08 08:27:39;;;;;;;0.65;0.65;;;;;;;19.65;31.91;98213.97;1846983;77;31017;-55
2023/03/08 08:30:27;;;;;;;0.70;0.70;;;;;;;19.63;31.96;98216.11;1845016;77;28120;-55
2023/03/08 08:33:16;;;;;;;0.60;0.60;;;;;;;19.65;31.92;98218.61;1839382;77;28147;-56
2023/03/08 08:36:07;;;;;;;0.70;0.70;;;;;;;19.65;31.94;98223.50;1835857;77;28115;-55
2023/03/08 08:38:56;;;;;;;0.70;0.70;;;;;;;19.66;31.95;98227.05;1847907;76;28129;-55
2023/03/08 08:41:44;;;;;;;0.72;0.72;;;;;;;19.66;31.95;98220.25;1868718;76;28623;-56
2023/03/08 08:44:32;;;;;;;0.70;0.70;;;;;;;19.69;31.92;98219.77;1838178;77;28057;-55
2023/03/08 08:47:20;;;;;;;0.88;0.70;;;;;;;19.69;31.94;98219.23;1847661;76;28069;-55
2023/03/08 08:50:10;;;;;;;0.68;0.68;;;;;;;19.69;31.95;98232.85;1836259;77;28679;-55
2023/03/08 08:52:58;;;;;;;0.90;0.75;;;;;;;19.70;31.92;98239.10;1856926;77;29739;-57
2023/03/08 08:55:46;;;;;;;0.70;0.70;;;;;;;19.69;31.95;98239.66;1844886;77;28164;-57
2023/03/08 08:58:35;;;;;;;0.60;0.60;;;;;;;19.68;31.92;98238.00;1850946;75;28116;-56
2023/03/08 09:01:26;;;;;;;0.60;0.60;;;;;;;19.71;31.92;98248.41;1863104;75;28169;-57
2023/03/08 09:04:15;;;;;;;0.70;0.70;;;;;;;19.68;31.90;98252.15;1867125;75;28657;-58
2023/03/08 09:07:06;;;;;;;0.60;0.60;;;;;;;19.71;31.91;98252.50;1864004;75;28059;-57
2023/03/08 09:09:59;;;;;;;0.75;0.75;;;;;;;19.72;31.90;98250.05;1878279;75;28206;-57
2023/03/08 09:12:47;;;;;;;0.60;0.60;;;;;;;19.73;31.87;98240.81;1873793;75;28189;-56
2023/03/08 09:15:36;;;;;;;0.72;0.72;;;;;;;19.71;31.91;98242.97;1869452;75;28060;-58
2023/03/08 09:18:25;;;;;;;0.60;0.60;;;;;;;19.71;31.89;98225.26;1863825;75;28103;-57
2023/03/08 09:21:14;;;;;;;0.60;0.60;;;;;;;19.68;31.93;98228.99;1862734;75;28080;-57
2023/03/08 09:24:05;;;;;;;0.70;0.70;;;;;;;19.71;31.87;98229.34;1862965;75;28181;-56
2023/03/08 09:26:53;;;;;;;0.70;0.70;;;;;;;19.71;31.90;98229.88;1868508;75;28115;-54
2023/03/08 09:29:42;;;;;;;0.80;0.80;;;;;;;19.69;31.94;98226.05;1884314;75;28176;-57
2023/03/08 09:32:33;;;;;;;0.70;0.70;;;;;;;19.72;31.91;98228.25;1862952;75;28251;-58
2023/03/08 09:35:22;;;;;;;1.00;0.60;;;;;;;19.72;31.91;98222.00;1863331;75;28248;-55
2023/03/08 09:38:10;;;;;;;0.70;0.70;;;;;;;19.74;31.91;98217.13;1867836;75;28079;-57
2023/03/08 09:41:04;;;;;;;0.60;0.60;;;;;;;19.73;31.90;98216.30;1862678;75;28105;-55
2023/03/08 09:44:05;;;;;;;0.50;0.50;;;;;;;19.75;31.88;98214.67;1863022;75;28096;-55
2023/03/08 09:46:57;;;;;;;0.60;0.60;;;;;;;19.74;31.90;98198.86;1862814;75;28257;-54
2023/03/08 09:49:48;;;;;;;0.78;0.78;;;;;;;19.74;31.88;98196.70;1865915;75;28170;-56
2023/03/08 09:52:49;;;;;;;0.80;0.80;;;;;;;19.73;31.92;98206.76;1865166;75;27982;-55
2023/03/08 09:55:40;;;;;;;0.70;0.70;;;;;;;19.74;31.92;98208.95;1884345;75;28149;-56
2023/03/08 09:58:43;;;;;;;0.80;0.70;;;;;;;19.74;31.95;98202.14;1856178;75;28195;-56
2023/03/08 10:01:51;;;;;;;0.62;0.62;;;;;;;19.73;31.93;98189.05;1860238;76;28565;-56
2023/03/08 10:04:48;;;;;;;0.82;0.82;;;;;;;19.72;31.96;98187.39;1847729;76;28181;-57
2023/03/08 10:07:57;;;;;;;0.90;0.90;;;;;;;19.72;31.98;98189.31;1868668;76;28084;-53
2023/03/08 10:11:12;;;;;;;0.80;0.80;;;;;;;19.73;31.96;98182.23;1868714;76;28054;-56
2023/03/08 10:14:01;;;;;;;0.60;0.60;;;;;;;19.72;31.94;98190.11;1853619;76;28048;-53
2023/03/08 10:16:53;;;;;;;0.80;0.80;;;;;;;19.73;31.98;98201.84;1848658;76;28111;-54
2023/03/08 10:19:47;;;;;;;0.70;0.70;;;;;;;19.75;31.95;98201.05;1862749;76;28227;-51
2023/03/08 10:22:41;;;;;;;0.60;0.60;;;;;;;19.75;31.94;98180.62;1858619;76;28097;-52
2023/03/08 10:25:30;;;;;;;0.88;0.88;;;;;;;19.76;31.91;98164.58;1855011;76;28059;-57
2023/03/08 10:28:25;;;;;;;0.82;0.80;;;;;;;19.77;31.93;98157.50;1850642;76;28138;-51
2023/03/08 10:31:28;;;;;;;0.80;0.80;;;;;;;19.76;31.92;98161.32;1839221;76;28253;-53
2023/03/08 10:34:23;;;;;;;0.70;0.70;;;;;;;19.80;31.90;98152.09;1858567;76;28243;-56
2023/03/08 10:37:13;;;;;;;0.68;0.68;;;;;;;19.77;31.90;98149.33;1858272;76;28056;-57
2023/03/08 10:40:05;;;;;;;0.70;0.70;;;;;;;19.78;31.91;98156.97;1855262;76;28275;-55
2023/03/08 10:42:59;;;;;;;0.90;0.90;;;;;;;19.82;31.86;98163.57;1855821;76;28259;-56
2023/03/08 10:45:48;;;;;;;0.70;0.70;;;;;;;19.81;31.91;98167.39;1858763;76;28219;-57
2023/03/08 10:48:37;;;;;;;0.70;0.70;;;;;;;19.81;31.87;98166.02;1858702;76;28099;-58
2023/03/08 10:51:28;;;;;;;0.50;0.50;;;;;;;19.81;31.90;98164.66;1855395;76;28228;-57
2023/03/08 10:54:16;;;;;;;0.72;0.72;;;;;;;19.82;31.89;98160.84;1855717;76;28139;-53
2023/03/08 10:57:05;;;;;;;0.72;0.72;;;;;;;19.87;31.87;98163.66;1858571;76;28141;-52
2023/03/08 10:59:54;;;;;;;0.88;0.88;;;;;;;19.85;31.87;98158.99;1861300;76;28122;-56
2023/03/08 11:02:42;;;;;;;1.00;1.00;;;;;;;19.85;31.88;98158.99;1864106;76;28122;-56
2023/03/08 11:05:30;;;;;;;0.93;0.93;;;;;;;19.88;31.85;98160.67;1858130;76;28130;-54
2023/03/08 11:08:21;;;;;;;0.85;0.85;;;;;;;19.86;31.83;98161.46;1856684;76;28147;-55
2023/03/08 11:11:13;;;;;;;0.90;0.90;;;;;;;19.88;31.85;98176.22;1856111;76;28155;-56
2023/03/08 11:14:02;;;;;;;0.80;0.80;;;;;;;19.88;31.83;98163.39;1863330;76;38483;-56
2023/03/08 11:17:02;;;;;;;0.60;0.60;;;;;;;19.89;31.83;98154.69;1857762;76;28206;-57
2023/03/08 11:19:59;;;;;;;0.82;0.82;;;;;;;19.87;31.85;98154.12;1856955;76;28197;-54
2023/03/08 11:23:10;;;;;;;0.75;0.75;;;;;;;19.85;31.87;98166.64;1856907;76;28087;-56
2023/03/08 11:26:04;;;;;;;0.80;0.75;;;;;;;19.84;31.89;98172.31;1856994;76;28129;-55
2023/03/08 11:29:09;;;;;;;0.85;0.85;;;;;;;19.83;31.95;98164.70;1878285;76;28133;-55
2023/03/08 11:32:12;;;;;;;0.80;0.80;;;;;;;19.82;31.95;98155.40;1864530;76;28134;-57
2023/03/08 11:35:09;;;;;;;0.68;0.68;;;;;;;19.77;31.96;98160.23;1878186;76;28140;-57
2023/03/08 11:38:04;;;;;;;0.70;0.70;;;;;;;19.80;32.00;98163.00;1857525;76;28125;-56
2023/03/08 11:41:07;;;;;;;0.80;0.80;;;;;;;19.81;32.00;98160.58;1856813;76;28741;-55
2023/03/08 11:44:16;;;;;;;0.90;0.90;;;;;;;19.79;32.03;98163.53;1852613;76;28145;-57
2023/03/08 11:47:17;;;;;;;0.80;0.80;;;;;;;19.80;32.02;98154.30;1867705;76;28202;-55
2023/03/08 11:50:08;;;;;;;0.78;0.78;;;;;;;19.79;32.03;98140.93;1867539;76;28068;-58
2023/03/08 11:53:16;;;;;;;1.60;0.70;;;;;;;19.76;32.07;98135.44;1863780;76;28016;-57
2023/03/08 11:56:26;;;;;;;1.00;1.00;;;;;;;19.79;32.02;98136.84;1861831;76;28192;-54
2023/03/08 11:59:20;;;;;;;1.00;0.90;;;;;;;19.77;32.06;98128.90;1860819;76;28219;-56
2023/03/08 12:02:12;;;;;;;0.85;0.85;;;;;;;19.77;32.08;98127.53;1848888;76;28143;-56
2023/03/08 12:05:28;;;;;;;0.93;0.93;;;;;;;19.76;32.11;98129.16;1847573;76;28132;-57
2023/03/08 12:08:23;;;;;;;1.05;1.05;;;;;;;19.78;32.05;98132.45;1863954;76;28254;-57
2023/03/08 12:11:20;;;;;;;0.70;0.70;;;;;;;19.76;32.10;98128.63;1815791;76;28165;-57
2023/03/08 12:14:22;;;;;;;0.90;0.90;;;;;;;19.74;32.13;98125.30;1836325;76;28118;-57
2023/03/08 12:17:19;;;;;;;0.90;0.90;;;;;;;19.76;32.11;98123.17;1854398;76;28211;-55
2023/03/08 12:20:10;;;;;;;1.17;1.02;;;;;;;19.77;32.10;98104.38;1858399;76;31068;-54
2023/03/08 12:23:26;;;;;;;1.20;0.90;;;;;;;19.79;32.10;98095.98;1858632;76;28647;-56
2023/03/08 12:26:22;;;;;;;0.90;0.90;;;;;;;19.79;32.05;98089.16;1842541;76;28187;-56
2023/03/08 12:29:19;;;;;;;0.80;0.80;;;;;;;19.77;32.12;98088.56;1847940;76;28603;-55
2023/03/08 12:32:10;;;;;;;1.70;1.00;;;;;;;19.77;32.11;98092.64;1849867;76;28143;-56
2023/03/08 12:35:05;;;;;;;1.32;0.98;;;;;;;19.79;32.10;98112.32;1851531;76;28105;-55
2023/03/08 12:38:03;;;;;;;0.90;0.90;;;;;;;19.78;32.11;98120.19;1848290;76;28092;-55
2023/03/08 12:40:54;;;;;;;0.90;0.90;;;;;;;19.77;32.11;98140.33;1848229;76;28156;-53
2023/03/08 12:43:42;;;;;;;1.00;1.00;;;;;;;19.78;32.14;98133.28;1847855;76;28348;-56
2023/03/08 12:46:50;;;;;;;1.15;1.02;;;;;;;19.78;32.12;98112.85;1869148;76;28072;-56
2023/03/08 12:49:44;;;;;;;0.80;0.80;;;;;;;19.83;32.09;98127.09;1868935;76;28161;-54
2023/03/08 12:52:34;;;;;;;1.02;1.02;;;;;;;19.80;32.09;98128.94;1849340;76;27986;-55
2023/03/08 12:55:33;;;;;;;1.42;0.90;;;;;;;19.80;32.09;98129.77;1868841;76;28159;-54
2023/03/08 12:58:18;;;;;;;1.20;1.20;;;;;;;19.82;32.10;98134.96;1847416;76;28244;-55
2023/03/08 13:01:09;;;;;;;0.82;0.82;;;;;;;19.81;32.08;98127.88;1870094;76;28098;-55
2023/03/08 13:03:58;;;;;;;0.90;0.90;;;;;;;19.81;32.10;98125.16;1865047;76;28267;-58
2023/03/08 13:06:56;;;;;;;1.10;1.10;;;;;;;19.78;32.12;98115.58;1867800;76;28152;-56
2023/03/08 13:09:56;;;;;;;1.00;1.00;;;;;;;19.80;32.10;98115.31;1867630;76;28230;-58
2023/03/08 13:13:12;;;;;;;1.00;1.00;;;;;;;19.75;31.94;98109.78;1867682;76;28158;-56
2023/03/08 13:16:21;;;;;;;0.77;0.77;;;;;;;19.75;31.94;98109.78;1856927;76;28292;-58
2023/03/08 13:19:16;;;;;;;1.00;1.00;;;;;;;19.78;32.14;98121.55;1857419;76;28145;-57
2023/03/08 13:22:07;;;;;;;1.20;1.10;;;;;;;19.75;32.18;98105.17;1862893;76;28105;-56
2023/03/08 13:24:58;;;;;;;0.90;0.90;;;;;;;19.76;32.20;98098.66;1857648;76;28110;-53
2023/03/08 13:27:56;;;;;;;1.20;0.97;;;;;;;19.76;32.20;98087.76;1856848;76;28227;-55